sensor_id;sensor_type;location;lat;lon;timestamp;P1;durP1;ratioP1;P2;durP2;ratioP2
12042;SDS011;6082;49.306;12.862;2022-09-01T00:01:13;5.17;;;4.23;;
12042;SDS011;6082;49.306;12.862;2022-09-01T00:03:48;7.23;;;4.60;;
12042;SDS011;6082;49.306;12.862;2022-09-01T00:06:17;6.00;;;5.00;;
12042;SDS011;6082;49.306;12.862;2022-09-01T00:08:55;5.93;;;4.63;;
12042;SDS011;6082;49.306;12.862;2022-09-01T00:11:23;6.27;;;4.40;;
12042;SDS011;6082;49.306;12.862;2022-09-01T00:13:50;6.00;;;4.33;;
12042;SDS011;6082;49.306;12.862;2022-09-01T00:16:16;7.63;;;5.17;;
12042;SDS011;6082;49.306;12.862;2022-09-01T00:18:48;8.77;;;5.93;;
12042;SDS011;6082;49.306;12.862;2022-09-01T00:21:24;8.20;;;5.47;;
12042;SDS011;6082;49.306;12.862;2022-09-01T00:23:55;6.00;;;4.70;;
12042;SDS011;6082;49.306;12.862;2022-09-01T00:26:21;5.47;;;4.33;;
12042;SDS011;6082;49.306;12.862;2022-09-01T00:28:47;10.50;;;7.20;;
12042;SDS011;6082;49.306;12.862;2022-09-01T00:31:14;7.17;;;5.43;;
12042;SDS011;6082;49.306;12.862;2022-09-01T00:33:40;7.53;;;5.10;;
12042;SDS011;6082;49.306;12.862;2022-09-01T00:36:06;8.73;;;6.07;;
12042;SDS011;6082;49.306;12.862;2022-09-01T00:38:32;8.73;;;5.80;;
12042;SDS011;6082;49.306;12.862;2022-09-01T00:40:58;10.27;;;7.20;;
12042;SDS011;6082;49.306;12.862;2022-09-01T00:46:16;9.07;;;6.40;;
12042;SDS011;6082;49.306;12.862;2022-09-01T00:48:45;11.40;;;7.57;;
12042;SDS011;6082;49.306;12.862;2022-09-01T00:51:15;9.83;;;6.23;;
12042;SDS011;6082;49.306;12.862;2022-09-01T00:53:41;8.80;;;6.70;;
12042;SDS011;6082;49.306;12.862;2022-09-01T00:56:12;9.43;;;6.73;;
12042;SDS011;6082;49.306;12.862;2022-09-01T00:58:39;9.57;;;7.00;;
12042;SDS011;6082;49.306;12.862;2022-09-01T01:01:06;11.10;;;7.50;;
12042;SDS011;6082;49.306;12.862;2022-09-01T01:03:32;9.87;;;6.60;;
12042;SDS011;6082;49.306;12.862;2022-09-01T01:05:59;13.40;;;7.90;;
12042;SDS011;6082;49.306;12.862;2022-09-01T01:08:30;8.60;;;6.80;;
12042;SDS011;6082;49.306;12.862;2022-09-01T01:11:01;8.93;;;6.20;;
12042;SDS011;6082;49.306;12.862;2022-09-01T01:13:29;11.67;;;7.50;;
12042;SDS011;6082;49.306;12.862;2022-09-01T01:16:00;9.73;;;6.93;;
12042;SDS011;6082;49.306;12.862;2022-09-01T01:18:27;11.30;;;7.40;;
12042;SDS011;6082;49.306;12.862;2022-09-01T01:21:03;10.60;;;7.03;;
12042;SDS011;6082;49.306;12.862;2022-09-01T01:23:55;8.90;;;6.63;;
12042;SDS011;6082;49.306;12.862;2022-09-01T01:26:26;11.07;;;6.40;;
12042;SDS011;6082;49.306;12.862;2022-09-01T01:28:52;9.70;;;6.77;;
12042;SDS011;6082;49.306;12.862;2022-09-01T01:31:19;7.83;;;5.90;;
12042;SDS011;6082;49.306;12.862;2022-09-01T01:33:51;7.53;;;5.67;;
12042;SDS011;6082;49.306;12.862;2022-09-01T01:36:20;8.97;;;5.13;;
12042;SDS011;6082;49.306;12.862;2022-09-01T01:38:57;7.10;;;5.30;;
12042;SDS011;6082;49.306;12.862;2022-09-01T01:41:26;7.53;;;5.60;;
12042;SDS011;6082;49.306;12.862;2022-09-01T01:43:55;10.33;;;5.83;;
12042;SDS011;6082;49.306;12.862;2022-09-01T01:46:22;7.77;;;5.80;;
12042;SDS011;6082;49.306;12.862;2022-09-01T01:48:49;7.00;;;4.93;;
12042;SDS011;6082;49.306;12.862;2022-09-01T01:51:16;7.10;;;4.60;;
12042;SDS011;6082;49.306;12.862;2022-09-01T01:53:45;8.40;;;5.93;;
12042;SDS011;6082;49.306;12.862;2022-09-01T01:56:12;8.70;;;5.23;;
12042;SDS011;6082;49.306;12.862;2022-09-01T01:58:38;9.83;;;6.17;;
12042;SDS011;6082;49.306;12.862;2022-09-01T02:01:04;7.50;;;6.20;;
12042;SDS011;6082;49.306;12.862;2022-09-01T02:03:32;8.27;;;5.50;;
12042;SDS011;6082;49.306;12.862;2022-09-01T02:06:02;8.53;;;6.50;;
12042;SDS011;6082;49.306;12.862;2022-09-01T02:08:34;7.80;;;6.17;;
12042;SDS011;6082;49.306;12.862;2022-09-01T02:11:01;7.33;;;6.00;;
12042;SDS011;6082;49.306;12.862;2022-09-01T02:13:28;7.57;;;5.93;;
12042;SDS011;6082;49.306;12.862;2022-09-01T02:15:58;8.13;;;5.73;;
12042;SDS011;6082;49.306;12.862;2022-09-01T02:18:30;8.33;;;6.10;;
12042;SDS011;6082;49.306;12.862;2022-09-01T02:21:01;12.00;;;6.13;;
12042;SDS011;6082;49.306;12.862;2022-09-01T02:23:33;9.13;;;6.20;;
12042;SDS011;6082;49.306;12.862;2022-09-01T02:25:59;9.57;;;6.70;;
12042;SDS011;6082;49.306;12.862;2022-09-01T02:28:26;8.47;;;5.83;;
12042;SDS011;6082;49.306;12.862;2022-09-01T02:30:56;8.67;;;5.80;;
12042;SDS011;6082;49.306;12.862;2022-09-01T02:33:24;10.53;;;6.33;;
12042;SDS011;6082;49.306;12.862;2022-09-01T02:35:57;8.10;;;6.20;;
12042;SDS011;6082;49.306;12.862;2022-09-01T02:38:25;8.07;;;6.20;;
12042;SDS011;6082;49.306;12.862;2022-09-01T02:40:53;8.87;;;5.80;;
12042;SDS011;6082;49.306;12.862;2022-09-01T02:43:20;6.87;;;5.43;;
12042;SDS011;6082;49.306;12.862;2022-09-01T02:45:47;7.57;;;6.10;;
12042;SDS011;6082;49.306;12.862;2022-09-01T02:48:23;8.27;;;6.37;;
12042;SDS011;6082;49.306;12.862;2022-09-01T02:51:14;7.63;;;5.77;;
12042;SDS011;6082;49.306;12.862;2022-09-01T02:53:42;6.53;;;5.10;;
12042;SDS011;6082;49.306;12.862;2022-09-01T02:56:09;7.63;;;5.80;;
12042;SDS011;6082;49.306;12.862;2022-09-01T02:58:38;8.73;;;5.27;;
12042;SDS011;6082;49.306;12.862;2022-09-01T03:01:17;7.23;;;5.33;;
12042;SDS011;6082;49.306;12.862;2022-09-01T03:03:50;8.50;;;6.07;;
12042;SDS011;6082;49.306;12.862;2022-09-01T03:06:19;7.43;;;6.03;;
12042;SDS011;6082;49.306;12.862;2022-09-01T03:08:51;7.10;;;5.60;;
12042;SDS011;6082;49.306;12.862;2022-09-01T03:11:19;7.33;;;5.43;;
12042;SDS011;6082;49.306;12.862;2022-09-01T03:13:47;7.60;;;5.43;;
12042;SDS011;6082;49.306;12.862;2022-09-01T03:16:13;9.60;;;5.87;;
12042;SDS011;6082;49.306;12.862;2022-09-01T03:18:40;8.20;;;6.07;;
12042;SDS011;6082;49.306;12.862;2022-09-01T03:21:07;7.33;;;5.50;;
12042;SDS011;6082;49.306;12.862;2022-09-01T03:23:34;6.00;;;4.73;;
12042;SDS011;6082;49.306;12.862;2022-09-01T03:26:02;7.60;;;5.80;;
12042;SDS011;6082;49.306;12.862;2022-09-01T03:28:28;6.87;;;5.23;;
12042;SDS011;6082;49.306;12.862;2022-09-01T03:30:54;8.77;;;5.00;;
12042;SDS011;6082;49.306;12.862;2022-09-01T03:33:22;8.10;;;5.90;;
12042;SDS011;6082;49.306;12.862;2022-09-01T03:35:49;7.37;;;5.60;;
12042;SDS011;6082;49.306;12.862;2022-09-01T03:38:15;9.50;;;6.40;;
12042;SDS011;6082;49.306;12.862;2022-09-01T03:40:51;8.10;;;6.13;;
12042;SDS011;6082;49.306;12.862;2022-09-01T03:43:22;7.47;;;5.40;;
12042;SDS011;6082;49.306;12.862;2022-09-01T03:45:49;10.67;;;7.57;;
12042;SDS011;6082;49.306;12.862;2022-09-01T03:48:15;9.30;;;6.33;;
12042;SDS011;6082;49.306;12.862;2022-09-01T03:50:42;10.33;;;6.43;;
12042;SDS011;6082;49.306;12.862;2022-09-01T03:53:13;8.23;;;6.63;;
12042;SDS011;6082;49.306;12.862;2022-09-01T03:55:42;8.47;;;6.37;;
12042;SDS011;6082;49.306;12.862;2022-09-01T03:58:09;9.57;;;6.47;;
12042;SDS011;6082;49.306;12.862;2022-09-01T04:00:40;12.33;;;7.27;;
12042;SDS011;6082;49.306;12.862;2022-09-01T04:03:09;9.70;;;7.03;;
12042;SDS011;6082;49.306;12.862;2022-09-01T04:05:43;11.03;;;6.30;;
12042;SDS011;6082;49.306;12.862;2022-09-01T04:08:10;9.03;;;6.40;;
12042;SDS011;6082;49.306;12.862;2022-09-01T04:10:48;8.30;;;6.20;;
12042;SDS011;6082;49.306;12.862;2022-09-01T04:13:18;9.20;;;6.20;;
12042;SDS011;6082;49.306;12.862;2022-09-01T04:15:48;7.90;;;6.03;;
12042;SDS011;6082;49.306;12.862;2022-09-01T04:18:15;8.20;;;6.07;;
12042;SDS011;6082;49.306;12.862;2022-09-01T04:20:51;6.80;;;5.77;;
12042;SDS011;6082;49.306;12.862;2022-09-01T04:23:26;7.37;;;5.77;;
12042;SDS011;6082;49.306;12.862;2022-09-01T04:28:41;6.63;;;5.27;;
12042;SDS011;6082;49.306;12.862;2022-09-01T04:31:11;9.17;;;5.97;;
12042;SDS011;6082;49.306;12.862;2022-09-01T04:33:42;8.40;;;5.53;;
12042;SDS011;6082;49.306;12.862;2022-09-01T04:36:27;8.33;;;5.73;;
12042;SDS011;6082;49.306;12.862;2022-09-01T04:38:59;8.13;;;5.33;;
12042;SDS011;6082;49.306;12.862;2022-09-01T04:41:27;8.97;;;5.93;;
12042;SDS011;6082;49.306;12.862;2022-09-01T04:43:56;9.13;;;5.83;;
12042;SDS011;6082;49.306;12.862;2022-09-01T04:46:24;8.90;;;6.30;;
12042;SDS011;6082;49.306;12.862;2022-09-01T04:48:52;9.03;;;6.03;;
12042;SDS011;6082;49.306;12.862;2022-09-01T04:51:19;7.53;;;6.27;;
12042;SDS011;6082;49.306;12.862;2022-09-01T04:53:45;8.60;;;6.30;;
12042;SDS011;6082;49.306;12.862;2022-09-01T04:56:16;8.20;;;6.13;;
12042;SDS011;6082;49.306;12.862;2022-09-01T04:58:45;9.33;;;6.47;;
12042;SDS011;6082;49.306;12.862;2022-09-01T05:01:12;10.07;;;6.07;;
12042;SDS011;6082;49.306;12.862;2022-09-01T05:03:43;10.10;;;6.87;;
12042;SDS011;6082;49.306;12.862;2022-09-01T05:06:14;10.33;;;6.10;;
12042;SDS011;6082;49.306;12.862;2022-09-01T05:08:42;11.40;;;6.43;;
12042;SDS011;6082;49.306;12.862;2022-09-01T05:11:10;12.13;;;6.77;;
12042;SDS011;6082;49.306;12.862;2022-09-01T05:13:36;8.93;;;6.43;;
12042;SDS011;6082;49.306;12.862;2022-09-01T05:16:07;11.07;;;7.10;;
12042;SDS011;6082;49.306;12.862;2022-09-01T05:18:37;8.97;;;7.17;;
12042;SDS011;6082;49.306;12.862;2022-09-01T05:21:07;11.00;;;6.53;;
12042;SDS011;6082;49.306;12.862;2022-09-01T05:23:37;8.53;;;6.23;;
12042;SDS011;6082;49.306;12.862;2022-09-01T05:26:04;14.03;;;7.03;;
12042;SDS011;6082;49.306;12.862;2022-09-01T05:28:41;9.23;;;6.97;;
12042;SDS011;6082;49.306;12.862;2022-09-01T05:31:07;9.67;;;6.83;;
12042;SDS011;6082;49.306;12.862;2022-09-01T05:33:34;8.73;;;6.80;;
12042;SDS011;6082;49.306;12.862;2022-09-01T05:36:04;9.90;;;6.80;;
12042;SDS011;6082;49.306;12.862;2022-09-01T05:38:32;11.50;;;6.57;;
12042;SDS011;6082;49.306;12.862;2022-09-01T05:41:00;11.10;;;7.80;;
12042;SDS011;6082;49.306;12.862;2022-09-01T05:43:28;11.80;;;7.07;;
12042;SDS011;6082;49.306;12.862;2022-09-01T05:45:55;8.77;;;6.50;;
12042;SDS011;6082;49.306;12.862;2022-09-01T05:48:22;9.93;;;6.73;;
12042;SDS011;6082;49.306;12.862;2022-09-01T05:50:49;8.27;;;6.47;;
12042;SDS011;6082;49.306;12.862;2022-09-01T05:53:20;8.63;;;6.13;;
12042;SDS011;6082;49.306;12.862;2022-09-01T05:55:49;9.13;;;6.17;;
12042;SDS011;6082;49.306;12.862;2022-09-01T05:58:18;6.97;;;5.30;;
12042;SDS011;6082;49.306;12.862;2022-09-01T06:00:44;8.10;;;6.33;;
12042;SDS011;6082;49.306;12.862;2022-09-01T06:03:13;8.87;;;6.47;;
12042;SDS011;6082;49.306;12.862;2022-09-01T06:05:39;8.87;;;6.10;;
12042;SDS011;6082;49.306;12.862;2022-09-01T06:08:07;7.23;;;5.90;;
12042;SDS011;6082;49.306;12.862;2022-09-01T06:10:38;10.23;;;6.23;;
12042;SDS011;6082;49.306;12.862;2022-09-01T06:13:06;7.97;;;6.10;;
12042;SDS011;6082;49.306;12.862;2022-09-01T06:15:33;9.93;;;6.50;;
12042;SDS011;6082;49.306;12.862;2022-09-01T06:18:03;8.73;;;6.00;;
12042;SDS011;6082;49.306;12.862;2022-09-01T06:20:37;10.00;;;6.47;;
12042;SDS011;6082;49.306;12.862;2022-09-01T06:23:05;10.30;;;6.20;;
12042;SDS011;6082;49.306;12.862;2022-09-01T06:25:31;8.23;;;5.60;;
12042;SDS011;6082;49.306;12.862;2022-09-01T06:27:57;10.93;;;6.43;;
12042;SDS011;6082;49.306;12.862;2022-09-01T06:30:24;9.07;;;6.47;;
12042;SDS011;6082;49.306;12.862;2022-09-01T06:32:53;8.87;;;6.60;;
12042;SDS011;6082;49.306;12.862;2022-09-01T06:35:20;10.23;;;7.33;;
12042;SDS011;6082;49.306;12.862;2022-09-01T06:37:49;9.13;;;6.30;;
12042;SDS011;6082;49.306;12.862;2022-09-01T06:40:15;12.53;;;6.83;;
12042;SDS011;6082;49.306;12.862;2022-09-01T06:42:44;9.90;;;6.53;;
12042;SDS011;6082;49.306;12.862;2022-09-01T06:45:14;10.03;;;6.13;;
12042;SDS011;6082;49.306;12.862;2022-09-01T06:47:42;9.83;;;7.10;;
12042;SDS011;6082;49.306;12.862;2022-09-01T06:50:10;10.70;;;6.97;;
12042;SDS011;6082;49.306;12.862;2022-09-01T06:52:39;12.47;;;8.40;;
12042;SDS011;6082;49.306;12.862;2022-09-01T06:55:06;14.27;;;7.80;;
12042;SDS011;6082;49.306;12.862;2022-09-01T06:57:40;11.53;;;7.93;;
12042;SDS011;6082;49.306;12.862;2022-09-01T07:00:10;14.87;;;8.10;;
12042;SDS011;6082;49.306;12.862;2022-09-01T07:02:45;11.53;;;8.67;;
12042;SDS011;6082;49.306;12.862;2022-09-01T07:05:13;11.53;;;7.97;;
12042;SDS011;6082;49.306;12.862;2022-09-01T07:07:52;13.40;;;8.30;;
12042;SDS011;6082;49.306;12.862;2022-09-01T07:10:23;12.83;;;8.50;;
12042;SDS011;6082;49.306;12.862;2022-09-01T07:12:51;13.60;;;8.73;;
12042;SDS011;6082;49.306;12.862;2022-09-01T07:15:20;13.40;;;8.20;;
12042;SDS011;6082;49.306;12.862;2022-09-01T07:17:48;13.57;;;8.23;;
12042;SDS011;6082;49.306;12.862;2022-09-01T07:20:17;11.53;;;7.60;;
12042;SDS011;6082;49.306;12.862;2022-09-01T07:22:49;12.00;;;7.93;;
12042;SDS011;6082;49.306;12.862;2022-09-01T07:25:15;11.03;;;8.07;;
12042;SDS011;6082;49.306;12.862;2022-09-01T07:27:42;11.83;;;8.07;;
12042;SDS011;6082;49.306;12.862;2022-09-01T07:30:17;12.70;;;7.93;;
12042;SDS011;6082;49.306;12.862;2022-09-01T07:32:48;12.03;;;7.57;;
12042;SDS011;6082;49.306;12.862;2022-09-01T07:35:15;12.33;;;7.57;;
12042;SDS011;6082;49.306;12.862;2022-09-01T07:37:46;11.60;;;7.63;;
12042;SDS011;6082;49.306;12.862;2022-09-01T07:40:16;11.20;;;7.53;;
12042;SDS011;6082;49.306;12.862;2022-09-01T07:42:45;10.50;;;7.30;;
12042;SDS011;6082;49.306;12.862;2022-09-01T07:45:14;11.50;;;7.57;;
12042;SDS011;6082;49.306;12.862;2022-09-01T07:47:41;9.77;;;7.33;;
12042;SDS011;6082;49.306;12.862;2022-09-01T07:50:09;14.03;;;8.03;;
12042;SDS011;6082;49.306;12.862;2022-09-01T07:52:38;10.77;;;7.93;;
12042;SDS011;6082;49.306;12.862;2022-09-01T07:57:36;11.23;;;8.80;;
12042;SDS011;6082;49.306;12.862;2022-09-01T08:00:05;12.17;;;7.43;;
12042;SDS011;6082;49.306;12.862;2022-09-01T08:02:32;9.63;;;7.33;;
12042;SDS011;6082;49.306;12.862;2022-09-01T08:05:14;10.43;;;7.70;;
12042;SDS011;6082;49.306;12.862;2022-09-01T08:07:42;10.40;;;7.77;;
12042;SDS011;6082;49.306;12.862;2022-09-01T08:10:11;9.50;;;7.60;;
12042;SDS011;6082;49.306;12.862;2022-09-01T08:12:37;9.40;;;7.10;;
12042;SDS011;6082;49.306;12.862;2022-09-01T08:15:03;10.60;;;7.50;;
12042;SDS011;6082;49.306;12.862;2022-09-01T08:17:30;9.93;;;7.93;;
12042;SDS011;6082;49.306;12.862;2022-09-01T08:19:56;10.40;;;7.47;;
12042;SDS011;6082;49.306;12.862;2022-09-01T08:22:22;9.13;;;6.93;;
12042;SDS011;6082;49.306;12.862;2022-09-01T08:24:52;11.03;;;7.33;;
12042;SDS011;6082;49.306;12.862;2022-09-01T08:27:18;10.13;;;7.50;;
12042;SDS011;6082;49.306;12.862;2022-09-01T08:29:44;9.77;;;7.97;;
12042;SDS011;6082;49.306;12.862;2022-09-01T08:32:10;12.30;;;8.00;;
12042;SDS011;6082;49.306;12.862;2022-09-01T08:34:36;10.70;;;7.63;;
12042;SDS011;6082;49.306;12.862;2022-09-01T08:37:03;11.87;;;8.30;;
12042;SDS011;6082;49.306;12.862;2022-09-01T08:39:29;11.47;;;8.13;;
12042;SDS011;6082;49.306;12.862;2022-09-01T08:42:03;11.83;;;7.83;;
12042;SDS011;6082;49.306;12.862;2022-09-01T08:44:49;12.43;;;7.53;;
12042;SDS011;6082;49.306;12.862;2022-09-01T08:47:23;10.73;;;7.30;;
12042;SDS011;6082;49.306;12.862;2022-09-01T08:49:49;11.27;;;7.37;;
12042;SDS011;6082;49.306;12.862;2022-09-01T08:52:21;8.50;;;7.17;;
12042;SDS011;6082;49.306;12.862;2022-09-01T08:54:53;10.73;;;7.33;;
12042;SDS011;6082;49.306;12.862;2022-09-01T09:00:00;11.67;;;6.50;;
12042;SDS011;6082;49.306;12.862;2022-09-01T09:02:42;5.93;;;4.93;;
12042;SDS011;6082;49.306;12.862;2022-09-01T09:13:41;7.07;;;5.77;;
12042;SDS011;6082;49.306;12.862;2022-09-01T09:16:35;7.37;;;5.53;;
12042;SDS011;6082;49.306;12.862;2022-09-01T09:19:21;8.20;;;5.77;;
12042;SDS011;6082;49.306;12.862;2022-09-01T09:21:51;6.73;;;5.10;;
12042;SDS011;6082;49.306;12.862;2022-09-01T09:24:30;6.47;;;5.00;;
12042;SDS011;6082;49.306;12.862;2022-09-01T09:27:31;6.23;;;4.70;;
12042;SDS011;6082;49.306;12.862;2022-09-01T09:32:49;5.93;;;4.67;;
12042;SDS011;6082;49.306;12.862;2022-09-01T09:35:29;4.33;;;3.93;;
12042;SDS011;6082;49.306;12.862;2022-09-01T09:43:54;5.37;;;4.03;;
12042;SDS011;6082;49.306;12.862;2022-09-01T09:49:07;4.87;;;4.07;;
12042;SDS011;6082;49.306;12.862;2022-09-01T09:51:40;4.60;;;3.33;;
12042;SDS011;6082;49.306;12.862;2022-09-01T09:56:48;4.83;;;3.60;;
12042;SDS011;6082;49.306;12.862;2022-09-01T09:59:40;4.60;;;3.60;;
12042;SDS011;6082;49.306;12.862;2022-09-01T10:02:20;4.70;;;3.87;;
12042;SDS011;6082;49.306;12.862;2022-09-01T10:04:56;4.63;;;4.13;;
12042;SDS011;6082;49.306;12.862;2022-09-01T10:09:52;4.83;;;3.03;;
12042;SDS011;6082;49.306;12.862;2022-09-01T10:12:20;4.40;;;3.20;;
12042;SDS011;6082;49.306;12.862;2022-09-01T10:14:57;3.63;;;3.30;;
12042;SDS011;6082;49.306;12.862;2022-09-01T10:17:34;5.43;;;3.13;;
12042;SDS011;6082;49.306;12.862;2022-09-01T10:20:16;4.33;;;2.90;;
12042;SDS011;6082;49.306;12.862;2022-09-01T10:22:45;4.30;;;3.17;;
12042;SDS011;6082;49.306;12.862;2022-09-01T10:25:16;3.50;;;2.90;;
12042;SDS011;6082;49.306;12.862;2022-09-01T10:27:50;3.73;;;2.70;;
12042;SDS011;6082;49.306;12.862;2022-09-01T10:30:21;3.10;;;2.60;;
12042;SDS011;6082;49.306;12.862;2022-09-01T10:32:52;3.20;;;2.43;;
12042;SDS011;6082;49.306;12.862;2022-09-01T10:35:31;3.20;;;2.80;;
12042;SDS011;6082;49.306;12.862;2022-09-01T10:38:00;3.33;;;2.63;;
12042;SDS011;6082;49.306;12.862;2022-09-01T10:40:38;4.87;;;3.40;;
12042;SDS011;6082;49.306;12.862;2022-09-01T10:43:33;3.77;;;2.90;;
12042;SDS011;6082;49.306;12.862;2022-09-01T10:48:47;2.90;;;2.27;;
12042;SDS011;6082;49.306;12.862;2022-09-01T10:53:49;3.17;;;2.40;;
12042;SDS011;6082;49.306;12.862;2022-09-01T10:56:36;2.43;;;2.13;;
12042;SDS011;6082;49.306;12.862;2022-09-01T10:59:26;2.60;;;2.40;;
12042;SDS011;6082;49.306;12.862;2022-09-01T11:04:20;3.37;;;2.90;;
12042;SDS011;6082;49.306;12.862;2022-09-01T11:06:57;3.70;;;3.00;;
12042;SDS011;6082;49.306;12.862;2022-09-01T11:17:17;3.13;;;2.53;;
12042;SDS011;6082;49.306;12.862;2022-09-01T11:19:44;2.77;;;2.20;;
12042;SDS011;6082;49.306;12.862;2022-09-01T11:27:59;2.40;;;2.20;;
12042;SDS011;6082;49.306;12.862;2022-09-01T11:33:02;3.13;;;2.33;;
12042;SDS011;6082;49.306;12.862;2022-09-01T11:35:30;3.97;;;2.53;;
12042;SDS011;6082;49.306;12.862;2022-09-01T11:38:00;3.70;;;2.20;;
12042;SDS011;6082;49.306;12.862;2022-09-01T11:40:29;3.33;;;2.60;;
12042;SDS011;6082;49.306;12.862;2022-09-01T11:42:56;2.83;;;2.50;;
12042;SDS011;6082;49.306;12.862;2022-09-01T11:45:26;3.07;;;2.13;;
12042;SDS011;6082;49.306;12.862;2022-09-01T11:47:57;1.93;;;1.73;;
12042;SDS011;6082;49.306;12.862;2022-09-01T11:50:38;1.93;;;1.73;;
12042;SDS011;6082;49.306;12.862;2022-09-01T11:53:07;2.70;;;2.50;;
12042;SDS011;6082;49.306;12.862;2022-09-01T11:55:41;2.23;;;1.97;;
12042;SDS011;6082;49.306;12.862;2022-09-01T12:00:51;2.57;;;2.20;;
12042;SDS011;6082;49.306;12.862;2022-09-01T12:03:23;3.43;;;1.93;;
12042;SDS011;6082;49.306;12.862;2022-09-01T12:05:52;2.50;;;2.07;;
12042;SDS011;6082;49.306;12.862;2022-09-01T12:08:30;2.33;;;2.00;;
12042;SDS011;6082;49.306;12.862;2022-09-01T12:11:06;2.43;;;2.23;;
12042;SDS011;6082;49.306;12.862;2022-09-01T12:13:53;2.63;;;1.83;;
12042;SDS011;6082;49.306;12.862;2022-09-01T12:16:21;2.53;;;1.83;;
12042;SDS011;6082;49.306;12.862;2022-09-01T12:18:51;2.13;;;1.93;;
12042;SDS011;6082;49.306;12.862;2022-09-01T12:21:22;3.00;;;2.10;;
12042;SDS011;6082;49.306;12.862;2022-09-01T12:24:17;3.70;;;2.33;;
12042;SDS011;6082;49.306;12.862;2022-09-01T12:26:45;2.77;;;2.10;;
12042;SDS011;6082;49.306;12.862;2022-09-01T12:29:12;2.27;;;2.00;;
12042;SDS011;6082;49.306;12.862;2022-09-01T12:31:39;2.47;;;1.93;;
12042;SDS011;6082;49.306;12.862;2022-09-01T12:37:01;1.60;;;1.50;;
12042;SDS011;6082;49.306;12.862;2022-09-01T12:39:31;1.40;;;1.30;;
12042;SDS011;6082;49.306;12.862;2022-09-01T12:42:04;1.60;;;1.50;;
12042;SDS011;6082;49.306;12.862;2022-09-01T12:47:05;2.00;;;1.50;;
12042;SDS011;6082;49.306;12.862;2022-09-01T12:49:34;2.53;;;1.80;;
12042;SDS011;6082;49.306;12.862;2022-09-01T12:52:09;2.03;;;1.83;;
12042;SDS011;6082;49.306;12.862;2022-09-01T12:57:31;2.07;;;1.50;;
12042;SDS011;6082;49.306;12.862;2022-09-01T13:00:07;1.97;;;1.70;;
12042;SDS011;6082;49.306;12.862;2022-09-01T13:02:35;2.70;;;1.83;;
12042;SDS011;6082;49.306;12.862;2022-09-01T13:08:00;1.67;;;1.57;;
12042;SDS011;6082;49.306;12.862;2022-09-01T13:10:34;2.07;;;1.73;;
12042;SDS011;6082;49.306;12.862;2022-09-01T13:13:06;1.70;;;1.60;;
12042;SDS011;6082;49.306;12.862;2022-09-01T13:15:33;2.13;;;1.70;;
12042;SDS011;6082;49.306;12.862;2022-09-01T13:18:00;1.47;;;1.30;;
12042;SDS011;6082;49.306;12.862;2022-09-01T13:20:26;1.57;;;1.47;;
12042;SDS011;6082;49.306;12.862;2022-09-01T13:22:52;1.53;;;1.40;;
12042;SDS011;6082;49.306;12.862;2022-09-01T13:25:19;1.50;;;1.40;;
12042;SDS011;6082;49.306;12.862;2022-09-01T13:27:47;2.43;;;1.77;;
12042;SDS011;6082;49.306;12.862;2022-09-01T13:30:13;3.33;;;1.80;;
12042;SDS011;6082;49.306;12.862;2022-09-01T13:32:44;2.30;;;1.60;;
12042;SDS011;6082;49.306;12.862;2022-09-01T13:35:12;1.50;;;1.40;;
12042;SDS011;6082;49.306;12.862;2022-09-01T13:37:40;1.60;;;1.50;;
12042;SDS011;6082;49.306;12.862;2022-09-01T13:40:06;3.40;;;1.20;;
12042;SDS011;6082;49.306;12.862;2022-09-01T13:42:39;2.90;;;1.40;;
12042;SDS011;6082;49.306;12.862;2022-09-01T13:45:16;2.27;;;1.20;;
12042;SDS011;6082;49.306;12.862;2022-09-01T13:47:44;2.00;;;1.40;;
12042;SDS011;6082;49.306;12.862;2022-09-01T13:50:12;2.00;;;1.50;;
12042;SDS011;6082;49.306;12.862;2022-09-01T13:52:40;1.90;;;1.20;;
12042;SDS011;6082;49.306;12.862;2022-09-01T13:55:12;1.50;;;1.40;;
12042;SDS011;6082;49.306;12.862;2022-09-01T13:57:40;1.40;;;1.30;;
12042;SDS011;6082;49.306;12.862;2022-09-01T14:00:07;1.43;;;1.30;;
12042;SDS011;6082;49.306;12.862;2022-09-01T14:02:40;1.40;;;1.30;;
12042;SDS011;6082;49.306;12.862;2022-09-01T14:05:13;1.40;;;1.30;;
12042;SDS011;6082;49.306;12.862;2022-09-01T14:07:39;1.43;;;1.30;;
12042;SDS011;6082;49.306;12.862;2022-09-01T14:10:05;1.27;;;1.17;;
12042;SDS011;6082;49.306;12.862;2022-09-01T14:12:33;2.03;;;1.20;;
12042;SDS011;6082;49.306;12.862;2022-09-01T14:14:59;1.20;;;1.10;;
12042;SDS011;6082;49.306;12.862;2022-09-01T14:17:24;1.03;;;1.00;;
12042;SDS011;6082;49.306;12.862;2022-09-01T14:19:50;1.53;;;1.40;;
12042;SDS011;6082;49.306;12.862;2022-09-01T14:22:16;1.17;;;0.93;;
12042;SDS011;6082;49.306;12.862;2022-09-01T14:24:42;2.20;;;1.30;;
12042;SDS011;6082;49.306;12.862;2022-09-01T14:27:08;1.20;;;1.10;;
12042;SDS011;6082;49.306;12.862;2022-09-01T14:29:35;1.10;;;1.00;;
12042;SDS011;6082;49.306;12.862;2022-09-01T14:32:01;1.20;;;0.90;;
12042;SDS011;6082;49.306;12.862;2022-09-01T14:34:27;1.80;;;1.20;;
12042;SDS011;6082;49.306;12.862;2022-09-01T14:36:54;1.27;;;1.00;;
12042;SDS011;6082;49.306;12.862;2022-09-01T14:39:22;1.07;;;0.90;;
12042;SDS011;6082;49.306;12.862;2022-09-01T14:41:49;2.07;;;1.00;;
12042;SDS011;6082;49.306;12.862;2022-09-01T14:44:15;1.17;;;1.07;;
12042;SDS011;6082;49.306;12.862;2022-09-01T14:46:40;1.00;;;0.90;;
12042;SDS011;6082;49.306;12.862;2022-09-01T14:49:07;1.30;;;1.00;;
12042;SDS011;6082;49.306;12.862;2022-09-01T14:51:35;1.17;;;1.00;;
12042;SDS011;6082;49.306;12.862;2022-09-01T14:54:02;1.43;;;0.90;;
12042;SDS011;6082;49.306;12.862;2022-09-01T14:56:29;1.20;;;0.97;;
12042;SDS011;6082;49.306;12.862;2022-09-01T14:58:54;1.77;;;1.30;;
12042;SDS011;6082;49.306;12.862;2022-09-01T15:01:25;1.10;;;1.00;;
12042;SDS011;6082;49.306;12.862;2022-09-01T15:03:51;1.00;;;0.90;;
12042;SDS011;6082;49.306;12.862;2022-09-01T15:06:21;1.53;;;1.00;;
12042;SDS011;6082;49.306;12.862;2022-09-01T15:08:47;1.47;;;1.13;;
12042;SDS011;6082;49.306;12.862;2022-09-01T15:11:15;1.30;;;1.20;;
12042;SDS011;6082;49.306;12.862;2022-09-01T15:13:44;0.90;;;0.90;;
12042;SDS011;6082;49.306;12.862;2022-09-01T15:16:17;0.90;;;0.90;;
12042;SDS011;6082;49.306;12.862;2022-09-01T15:18:45;0.80;;;0.80;;
12042;SDS011;6082;49.306;12.862;2022-09-01T15:21:22;1.47;;;1.10;;
12042;SDS011;6082;49.306;12.862;2022-09-01T15:23:54;1.30;;;1.13;;
12042;SDS011;6082;49.306;12.862;2022-09-01T15:26:20;1.23;;;1.00;;
12042;SDS011;6082;49.306;12.862;2022-09-01T15:28:47;0.70;;;0.70;;
12042;SDS011;6082;49.306;12.862;2022-09-01T15:31:14;1.10;;;0.80;;
12042;SDS011;6082;49.306;12.862;2022-09-01T15:33:42;0.80;;;0.80;;
12042;SDS011;6082;49.306;12.862;2022-09-01T15:36:12;3.20;;;1.20;;
12042;SDS011;6082;49.306;12.862;2022-09-01T15:38:40;1.33;;;1.00;;
12042;SDS011;6082;49.306;12.862;2022-09-01T15:41:06;1.07;;;0.93;;
12042;SDS011;6082;49.306;12.862;2022-09-01T15:43:32;0.80;;;0.80;;
12042;SDS011;6082;49.306;12.862;2022-09-01T15:45:58;1.17;;;0.90;;
12042;SDS011;6082;49.306;12.862;2022-09-01T15:48:28;1.13;;;0.90;;
12042;SDS011;6082;49.306;12.862;2022-09-01T15:51:20;1.63;;;1.00;;
12042;SDS011;6082;49.306;12.862;2022-09-01T15:53:56;1.67;;;1.07;;
12042;SDS011;6082;49.306;12.862;2022-09-01T15:56:27;2.57;;;1.00;;
12042;SDS011;6082;49.306;12.862;2022-09-01T15:58:55;1.07;;;0.97;;
12042;SDS011;6082;49.306;12.862;2022-09-01T16:01:23;1.00;;;0.90;;
12042;SDS011;6082;49.306;12.862;2022-09-01T16:03:50;1.30;;;0.80;;
12042;SDS011;6082;49.306;12.862;2022-09-01T16:06:15;1.97;;;1.10;;
12042;SDS011;6082;49.306;12.862;2022-09-01T16:08:44;1.20;;;1.10;;
12042;SDS011;6082;49.306;12.862;2022-09-01T16:11:10;1.40;;;1.30;;
12042;SDS011;6082;49.306;12.862;2022-09-01T16:13:40;1.30;;;1.10;;
12042;SDS011;6082;49.306;12.862;2022-09-01T16:16:24;1.60;;;1.10;;